Time;durP1;ratioP1;P1;durP2;ratioP2;P2;SDS_P1;SDS_P2;PMS_P1;PMS_P2;Temp;Humidity;BMP_temperature;BMP_pressure;BME280_temperature;BME280_humidity;BME280_pressure;Samples;Min_cycle;Max_cycle;Signal;HPM_P1;HPM_P2
2022/12/10 00:01:19;;;;;;;7.05;2.55;;;;;;;1.84;75.13;100933.44;5118886;27;20019;-83
2022/12/10 00:03:46;;;;;;;0.20;0.20;;;;;;;1.89;74.96;100934.41;5132520;27;20031;-81
2022/12/10 00:06:17;;;;;;;0.22;0.22;;;;;;;1.97;75.07;100937.19;5130039;27;20081;-83
2022/12/10 00:08:45;;;;;;;0.68;0.68;;;;;;;2.01;75.15;100938.09;5117347;27;20035;-81
2022/12/10 00:11:17;;;;;;;0.20;0.20;;;;;;;2.03;75.19;100944.22;5115869;27;21449;-81
2022/12/10 00:13:47;;;;;;;1.35;1.25;;;;;;;2.08;75.07;100938.22;5116890;27;20068;-81
2022/12/10 00:16:17;;;;;;;0.10;0.10;;;;;;;2.10;75.06;100940.84;5121408;28;20045;-83
2022/12/10 00:18:44;;;;;;;0.43;0.43;;;;;;;2.10;75.03;100936.50;5128790;27;20016;-82
2022/12/10 00:21:13;;;;;;;0.10;0.10;;;;;;;2.11;75.00;100942.63;5124080;27;20100;-83
2022/12/10 00:23:40;;;;;;;0.30;0.30;;;;;;;2.07;74.99;100943.44;5121560;27;20027;-83
2022/12/10 00:26:17;;;;;;;1.85;1.45;;;;;;;2.05;74.92;100943.38;5118933;28;20100;-82
2022/12/10 00:28:47;;;;;;;0.15;0.15;;;;;;;2.01;74.80;100935.50;5111391;28;20047;-83
2022/12/10 00:31:23;;;;;;;0.10;0.10;;;;;;;2.03;74.82;100936.38;5118194;28;20027;-83
2022/12/10 00:33:59;;;;;;;0.43;0.43;;;;;;;2.02;74.84;100937.22;5116043;28;20027;-83
2022/12/10 00:36:35;;;;;;;0.10;0.10;;;;;;;2.01;74.63;100941.59;5117035;28;20041;-83
2022/12/10 00:39:06;;;;;;;0.10;0.10;;;;;;;2.05;74.46;100942.53;5116725;28;20023;-83
2022/12/10 00:41:36;;;;;;;0.52;0.52;;;;;;;2.08;74.42;100934.72;5119830;28;20078;-83
2022/12/10 00:44:02;;;;;;;0.30;0.30;;;;;;;2.06;74.15;100939.94;5116114;28;20027;-85
2022/12/10 00:46:29;;;;;;;0.20;0.20;;;;;;;2.07;74.31;100946.06;5124298;28;20031;-85
2022/12/10 00:48:55;;;;;;;0.20;0.20;;;;;;;2.06;74.25;100944.28;5119722;28;20673;-83
2022/12/10 00:51:23;;;;;;;0.10;0.10;;;;;;;2.05;74.18;100943.38;5115442;28;20111;-84
2022/12/10 00:53:53;;;;;;;0.55;0.55;;;;;;;2.07;74.31;100940.81;5127937;27;20038;-82
2022/12/10 00:56:23;;;;;;;0.10;0.10;;;;;;;2.05;74.11;100937.28;5126096;27;20094;-82
2022/12/10 00:58:50;;;;;;;0.20;0.20;;;;;;;2.07;74.09;100948.66;5111998;28;20051;-82
2022/12/10 01:01:33;;;;;;;0.47;0.47;;;;;;;2.09;74.13;100950.44;5116812;28;20032;-83
2022/12/10 01:04:05;;;;;;;0.13;0.13;;;;;;;2.07;73.93;100948.66;5125250;28;20119;-83
2022/12/10 01:06:35;;;;;;;3.58;1.48;;;;;;;2.01;73.95;100948.56;5133122;28;20019;-83
2022/12/10 01:09:04;;;;;;;0.75;0.73;;;;;;;1.99;74.07;100951.13;5125907;28;20050;-83
2022/12/10 01:11:39;;;;;;;2.17;2.08;;;;;;;1.98;74.15;100952.00;5121361;28;20016;-83
2022/12/10 01:14:10;;;;;;;0.77;0.77;;;;;;;1.94;73.86;100964.13;5132447;28;20027;-83
2022/12/10 01:16:38;;;;;;;0.20;0.20;;;;;;;1.89;73.88;100968.38;5139764;27;20038;-83
2022/12/10 01:19:05;;;;;;;0.55;0.55;;;;;;;1.89;74.30;100963.16;5125666;27;20020;-83
2022/12/10 01:21:32;;;;;;;2.75;2.30;;;;;;;1.86;74.24;100965.72;5118195;27;20059;-82
2022/12/10 01:24:01;;;;;;;0.20;0.20;;;;;;;1.86;74.24;100968.34;5123032;27;20015;-81
2022/12/10 01:26:36;;;;;;;0.10;0.10;;;;;;;1.86;74.20;100968.34;5123341;27;20027;-81
2022/12/10 01:29:04;;;;;;;0.10;0.10;;;;;;;1.87;74.34;100972.72;5114089;27;20112;-81
2022/12/10 01:31:48;;;;;;;;;;;;;;;;;;;;;
2022/12/10 01:34:47;;;;;;;0.15;0.15;;;;;;;1.97;74.40;100985.94;5101663;28;20384;-81
2022/12/10 01:37:38;;;;;;;0.40;0.40;;;;;;;1.97;74.44;100980.69;5118426;28;20026;-81
2022/12/10 01:40:13;;;;;;;0.30;0.30;;;;;;;1.91;74.30;100971.03;5128680;27;20043;-81
2022/12/10 01:42:40;;;;;;;0.65;0.65;;;;;;;1.89;74.24;100971.00;5125332;27;20035;-82
2022/12/10 01:45:10;;;;;;;2.28;2.17;;;;;;;1.91;74.22;100979.75;5119385;27;20040;-82
2022/12/10 01:47:39;;;;;;;0.20;0.20;;;;;;;1.93;74.38;100975.44;5119430;27;20034;-82
2022/12/10 01:50:07;;;;;;;0.17;0.17;;;;;;;1.86;74.39;100970.94;5128613;27;20023;-81
2022/12/10 01:52:41;;;;;;;0.82;0.82;;;;;;;1.87;74.26;100977.94;5134848;27;20042;-81
2022/12/10 01:55:31;;;;;;;0.20;0.20;;;;;;;1.91;74.30;100986.72;5128843;27;20034;-81
2022/12/10 01:58:00;;;;;;;0.90;0.90;;;;;;;1.86;74.41;100980.53;5115959;28;20035;-82
2022/12/10 02:00:27;;;;;;;1.30;1.30;;;;;;;1.85;74.36;100978.78;5116228;27;20569;-82
2022/12/10 02:03:08;;;;;;;0.20;0.20;;;;;;;1.93;74.27;100985.88;5118324;27;20449;-81
2022/12/10 02:05:42;;;;;;;0.67;0.67;;;;;;;1.96;74.42;100984.16;5117439;27;20019;-81
2022/12/10 02:10:59;;;;;;;0.20;0.20;;;;;;;2.02;74.62;100995.63;5029752;27;1423669;-81
2022/12/10 02:13:38;;;;;;;6.07;1.27;;;;;;;1.94;74.52;100982.44;5066736;28;20059;-80
2022/12/10 02:16:28;;;;;;;0.28;0.28;;;;;;;1.91;74.52;100987.59;5043359;28;20156;-81
2022/12/10 02:19:06;;;;;;;0.82;0.82;;;;;;;1.86;74.47;100989.25;5049092;28;20112;-81
2022/12/10 02:21:36;;;;;;;8.98;1.40;;;;;;;1.86;74.44;100978.78;5045176;28;20037;-81
2022/12/10 02:24:07;;;;;;;1.00;1.00;;;;;;;1.88;74.46;100994.50;5049260;28;20526;-80
2022/12/10 02:27:03;;;;;;;0.30;0.30;;;;;;;1.91;74.54;100992.81;5050295;28;20083;-81
2022/12/10 02:29:31;;;;;;;0.35;0.35;;;;;;;1.84;74.63;100980.47;5061377;28;20033;-82
2022/12/10 02:32:22;;;;;;;0.20;0.20;;;;;;;1.86;74.50;100981.41;5057477;28;20104;-81
2022/12/10 02:34:52;;;;;;;0.35;0.35;;;;;;;1.81;74.39;100979.53;5052332;28;20513;-81
2022/12/10 02:37:28;;;;;;;0.20;0.20;;;;;;;1.81;74.69;100979.53;5044147;28;20038;-81
2022/12/10 02:39:57;;;;;;;1.55;1.50;;;;;;;1.77;74.54;100979.50;5044006;28;20029;-82
2022/12/10 02:42:27;;;;;;;1.42;1.35;;;;;;;1.76;75.02;100976.88;5053450;28;20025;-82
2022/12/10 02:44:55;;;;;;;1.95;1.85;;;;;;;1.71;74.63;100978.53;5053619;28;20025;-82
2022/12/10 02:47:22;;;;;;;0.73;0.73;;;;;;;1.69;74.95;100982.81;5052420;28;20029;-82
2022/12/10 02:49:50;;;;;;;0.20;0.20;;;;;;;1.69;74.83;100980.22;5050135;28;20029;-82
2022/12/10 02:52:19;;;;;;;1.80;1.58;;;;;;;1.70;74.86;100977.63;5046919;28;20071;-82
2022/12/10 02:54:47;;;;;;;0.30;0.30;;;;;;;1.74;74.94;100975.94;5052463;28;20487;-83
2022/12/10 02:57:44;;;;;;;0.10;0.10;;;;;;;1.79;74.91;100982.13;5053930;28;20107;-82
2022/12/10 03:00:18;;;;;;;0.60;0.60;;;;;;;1.76;74.89;100966.41;5052817;28;20044;-83
2022/12/10 03:08:11;;;;;;;0.50;0.50;;;;;;;1.78;75.11;100982.97;5131280;27;20389;-83
2022/12/10 03:13:23;;;;;;;2.10;1.98;;;;;;;1.84;74.87;100977.00;5142458;27;20369;-82
2022/12/10 03:15:53;;;;;;;0.20;0.20;;;;;;;1.83;75.01;100983.06;5068884;28;20028;-81
2022/12/10 03:18:24;;;;;;;1.05;0.95;;;;;;;1.83;75.07;100983.06;5083175;28;20024;-81
2022/12/10 03:20:54;;;;;;;0.15;0.15;;;;;;;1.73;74.72;100979.41;5071956;28;20036;-82
2022/12/10 03:23:24;;;;;;;0.77;0.77;;;;;;;1.72;74.91;100972.41;5073959;28;20059;-82
2022/12/10 03:25:51;;;;;;;0.10;0.10;;;;;;;1.74;75.05;100975.94;5090277;28;20081;-82
2022/12/10 03:28:21;;;;;;;0.22;0.22;;;;;;;1.66;74.83;100978.44;5086692;28;20056;-82
2022/12/10 03:30:49;;;;;;;0.45;0.45;;;;;;;1.69;75.12;100972.38;5085361;28;20035;-82
2022/12/10 03:33:16;;;;;;;0.85;0.65;;;;;;;1.64;75.00;100976.66;5079430;28;20029;-82
2022/12/10 03:35:43;;;;;;;0.63;0.63;;;;;;;1.69;75.13;100969.78;5088053;28;20024;-82
2022/12/10 03:38:10;;;;;;;0.28;0.28;;;;;;;1.70;75.22;100964.56;5080939;28;20036;-82
2022/12/10 03:40:37;;;;;;;0.10;0.10;;;;;;;1.70;75.07;100964.56;5097567;28;20040;-82
2022/12/10 03:43:03;;;;;;;2.13;2.03;;;;;;;1.76;75.04;100971.66;5091038;28;20028;-82
2022/12/10 03:45:29;;;;;;;0.93;0.93;;;;;;;1.79;75.10;100971.69;5078261;28;20031;-82
2022/12/10 03:47:55;;;;;;;0.10;0.10;;;;;;;1.76;75.00;100980.34;5085300;28;20029;-82
2022/12/10 03:50:21;;;;;;;0.20;0.20;;;;;;;1.75;74.95;100982.94;5088652;28;20032;-81
2022/12/10 03:52:47;;;;;;;0.30;0.30;;;;;;;1.76;74.96;100984.72;5084236;28;20056;-81
2022/12/10 03:55:14;;;;;;;0.20;0.20;;;;;;;1.74;74.83;100983.78;5088100;28;20439;-82
2022/12/10 03:57:40;;;;;;;0.20;0.20;;;;;;;1.74;74.88;100986.41;5076645;28;20036;-82
2022/12/10 04:00:07;;;;;;;0.20;0.20;;;;;;;1.74;74.89;100975.94;5092367;28;20092;-82
2022/12/10 04:02:33;;;;;;;0.20;0.20;;;;;;;1.76;74.94;100982.09;5093227;28;20020;-82
2022/12/10 04:04:59;;;;;;;0.30;0.30;;;;;;;1.80;74.91;100989.13;5083388;28;20047;-82
2022/12/10 04:07:25;;;;;;;0.60;0.60;;;;;;;1.78;74.97;100982.97;5079742;28;20659;-82
2022/12/10 04:09:51;;;;;;;0.20;0.20;;;;;;;1.76;74.94;100987.31;5078569;28;20039;-82
2022/12/10 04:12:17;;;;;;;0.35;0.35;;;;;;;1.72;74.88;100988.09;5083835;28;20033;-83
2022/12/10 04:17:33;;;;;;;0.20;0.20;;;;;;;1.70;75.32;100990.69;5083028;28;20036;-82
2022/12/10 04:19:59;;;;;;;0.22;0.22;;;;;;;1.72;74.97;100985.47;5083254;28;20534;-82
2022/12/10 04:27:59;;;;;;;1.80;1.25;;;;;;;1.75;74.88;100972.50;5066407;28;20035;-83
2022/12/10 04:30:25;;;;;;;3.72;1.30;;;;;;;1.76;74.92;100984.72;5061028;28;20104;-83
2022/12/10 04:32:51;;;;;;;0.20;0.20;;;;;;;1.76;74.99;100982.97;5071412;28;20028;-82
2022/12/10 04:35:17;;;;;;;0.10;0.10;;;;;;;1.80;75.14;100983.91;5075864;28;20532;-82
2022/12/10 04:37:43;;;;;;;0.50;0.50;;;;;;;1.82;75.29;100992.66;5077292;28;20037;-81
2022/12/10 04:40:10;;;;;;;1.65;1.55;;;;;;;1.84;75.18;100990.06;5077310;28;20024;-81
2022/12/10 04:42:36;;;;;;;0.10;0.10;;;;;;;1.77;75.02;100994.31;5064711;28;20029;-82
2022/12/10 04:45:02;;;;;;;1.77;1.75;;;;;;;1.78;75.06;100990.81;5072541;28;20063;-81
2022/12/10 04:47:29;;;;;;;0.30;0.30;;;;;;;1.74;74.91;100994.25;5069602;28;20491;-82
2022/12/10 04:49:55;;;;;;;0.20;0.20;;;;;;;1.68;75.02;100994.13;5070606;28;20111;-82
2022/12/10 04:52:21;;;;;;;0.20;0.20;;;;;;;1.69;75.19;100990.66;5085287;28;20019;-81
2022/12/10 04:54:48;;;;;;;0.20;0.20;;;;;;;1.71;75.23;100994.19;5099133;28;20043;-81
2022/12/10 04:57:14;;;;;;;0.85;0.85;;;;;;;1.76;75.18;100987.31;5071191;28;20398;-81
2022/12/10 04:59:40;;;;;;;0.10;0.10;;;;;;;1.79;75.43;100995.19;5055436;28;20025;-81
2022/12/10 05:02:07;;;;;;;0.10;0.10;;;;;;;1.83;75.41;100989.16;5061189;28;20034;-81
2022/12/10 05:04:33;;;;;;;0.20;0.20;;;;;;;1.87;75.41;100992.72;5057822;28;20091;-81
2022/12/10 05:07:00;;;;;;;0.10;0.10;;;;;;;1.88;75.31;100992.78;5063060;28;20029;-83
2022/12/10 05:09:26;;;;;;;0.10;0.10;;;;;;;1.92;75.35;100989.34;5061562;28;20549;-81
2022/12/10 05:11:52;;;;;;;0.10;0.10;;;;;;;1.95;75.32;100991.13;5059692;28;20029;-82
2022/12/10 05:14:18;;;;;;;0.73;0.73;;;;;;;1.94;75.34;100987.66;5063323;28;20031;-82
2022/12/10 05:16:44;;;;;;;0.93;0.93;;;;;;;1.97;75.15;100991.16;5065249;28;20390;-82
2022/12/10 05:19:11;;;;;;;0.20;0.20;;;;;;;1.98;75.38;100987.69;5072040;28;20446;-82
2022/12/10 05:24:24;;;;;;;0.10;0.10;;;;;;;1.88;75.24;100992.78;5077336;28;20409;-83
2022/12/10 05:26:51;;;;;;;0.30;0.30;;;;;;;1.83;75.16;100994.41;5076157;28;20024;-82
2022/12/10 05:29:18;;;;;;;0.40;0.40;;;;;;;1.84;75.16;100992.69;5061844;28;20040;-81
2022/12/10 05:31:44;;;;;;;0.20;0.20;;;;;;;1.82;75.29;100990.03;5063675;28;20442;-81
2022/12/10 05:34:11;;;;;;;0.57;0.57;;;;;;;1.83;75.09;100999.63;5063780;28;20071;-81
2022/12/10 05:36:37;;;;;;;0.10;0.10;;;;;;;1.87;75.29;100993.63;5079000;28;20032;-83
2022/12/10 05:39:04;;;;;;;0.20;0.20;;;;;;;1.86;75.12;100989.25;5065184;28;20031;-81
2022/12/10 05:41:34;;;;;;;0.20;0.20;;;;;;;1.87;75.22;100988.41;5061322;28;20030;-81
2022/12/10 05:44:00;;;;;;;0.20;0.20;;;;;;;1.88;75.02;100982.31;5068827;28;20021;-81
2022/12/10 05:46:29;;;;;;;0.15;0.15;;;;;;;1.88;75.15;100978.81;5057453;28;20025;-82
2022/12/10 05:48:57;;;;;;;0.20;0.20;;;;;;;1.87;75.24;100988.41;5084554;28;20031;-80
2022/12/10 05:51:27;;;;;;;0.10;0.10;;;;;;;1.93;75.33;100985.88;5072623;28;20418;-83
2022/12/10 05:53:54;;;;;;;0.10;0.10;;;;;;;1.91;75.19;100986.72;5082445;28;20025;-81
2022/12/10 05:56:23;;;;;;;0.80;0.80;;;;;;;1.94;75.19;100991.97;5065073;28;20028;-82
2022/12/10 05:58:52;;;;;;;0.65;0.65;;;;;;;1.93;75.21;100996.34;5068816;28;20028;-82
2022/12/10 06:01:23;;;;;;;0.20;0.20;;;;;;;1.97;75.15;100991.16;5066469;28;20021;-82
2022/12/10 06:03:50;;;;;;;0.25;0.25;;;;;;;1.99;75.14;100999.91;5049993;28;20037;-82
2022/12/10 06:06:22;;;;;;;0.10;0.10;;;;;;;2.01;75.10;101009.53;5065850;28;20025;-81
2022/12/10 06:08:49;;;;;;;0.13;0.13;;;;;;;2.02;75.03;101011.31;5093977;28;20062;-82
2022/12/10 06:11:15;;;;;;;0.77;0.77;;;;;;;2.05;75.07;101015.69;5070405;28;20128;-82
2022/12/10 06:13:41;;;;;;;0.30;0.30;;;;;;;2.05;75.24;101010.47;5060524;28;20028;-82
2022/12/10 06:16:10;;;;;;;0.25;0.25;;;;;;;2.05;74.98;101006.13;5061503;28;20566;-82
2022/12/10 06:18:37;;;;;;;1.83;1.75;;;;;;;2.05;74.92;101000.03;5058144;28;20036;-82
2022/12/10 06:21:06;;;;;;;0.20;0.20;;;;;;;1.99;74.82;101010.38;5058511;28;20509;-82
2022/12/10 06:23:33;;;;;;;0.20;0.20;;;;;;;1.94;74.85;101012.88;5067582;28;20486;-82
2022/12/10 06:26:02;;;;;;;0.10;0.10;;;;;;;1.90;74.93;101006.72;5058043;28;20056;-82
2022/12/10 06:28:29;;;;;;;1.40;1.30;;;;;;;1.91;74.82;101016.31;5058492;28;20025;-82
2022/12/10 06:30:57;;;;;;;0.10;0.10;;;;;;;1.91;75.00;101011.09;5059891;28;20167;-82
2022/12/10 06:33:26;;;;;;;1.15;0.75;;;;;;;1.86;75.03;101017.97;5072152;28;20039;-81
2022/12/10 06:35:52;;;;;;;0.10;0.10;;;;;;;1.84;74.94;101022.28;5077102;28;20060;-81
2022/12/10 06:38:18;;;;;;;0.30;0.30;;;;;;;1.83;74.95;101015.28;5077675;28;20017;-83
2022/12/10 06:40:44;;;;;;;1.20;1.20;;;;;;;1.84;75.02;101021.41;5081921;28;20170;-83
2022/12/10 06:43:10;;;;;;;2.45;2.35;;;;;;;1.84;75.15;101029.25;5083434;28;20013;-83
2022/12/10 06:45:41;;;;;;;0.15;0.15;;;;;;;1.84;75.16;101030.13;5079970;28;20029;-82
2022/12/10 06:48:07;;;;;;;2.20;2.05;;;;;;;1.85;75.27;101024.06;5075694;28;20071;-81
2022/12/10 06:50:34;;;;;;;0.10;0.10;;;;;;;1.87;75.14;101024.97;5075136;28;20033;-82
2022/12/10 06:53:01;;;;;;;0.13;0.13;;;;;;;1.86;75.37;101025.81;5077473;28;20020;-83
2022/12/10 06:55:27;;;;;;;2.90;2.47;;;;;;;1.86;75.15;101030.19;5067410;28;20037;-83
2022/12/10 06:57:54;;;;;;;0.40;0.40;;;;;;;1.86;75.28;101030.19;5078910;28;20039;-83
2022/12/10 07:00:21;;;;;;;0.50;0.50;;;;;;;1.86;75.11;101024.94;5063928;28;20028;-83
2022/12/10 07:02:48;;;;;;;0.28;0.28;;;;;;;1.88;75.32;101039.81;5066695;28;20045;-83
2022/12/10 07:05:15;;;;;;;0.20;0.20;;;;;;;1.90;75.26;101037.22;5065285;28;20039;-82
2022/12/10 07:07:42;;;;;;;0.10;0.10;;;;;;;1.91;75.16;101044.22;5066056;28;20086;-83
2022/12/10 07:10:09;;;;;;;0.15;0.15;;;;;;;1.91;75.18;101039.84;5060483;28;20032;-83
2022/12/10 07:12:35;;;;;;;0.17;0.17;;;;;;;1.96;75.35;101047.78;5069298;28;20418;-82
2022/12/10 07:15:01;;;;;;;3.72;2.17;;;;;;;1.94;75.23;101050.38;5082233;28;20019;-83
2022/12/10 07:17:27;;;;;;;0.20;0.20;;;;;;;1.96;74.95;101047.78;5067567;28;20025;-82
2022/12/10 07:19:54;;;;;;;0.28;0.28;;;;;;;1.90;75.05;101051.16;5077108;28;20029;-82
2022/12/10 07:22:20;;;;;;;3.13;1.20;;;;;;;1.87;75.04;101048.50;5073830;28;20067;-83
2022/12/10 07:24:48;;;;;;;0.10;0.10;;;;;;;1.86;74.94;101049.34;5070750;28;20036;-82
2022/12/10 07:27:14;;;;;;;0.10;0.10;;;;;;;1.87;75.23;101053.72;5071671;28;20119;-82
2022/12/10 07:29:40;;;;;;;0.15;0.15;;;;;;;1.86;75.01;101049.34;5048805;28;20047;-83
2022/12/10 07:32:06;;;;;;;0.20;0.20;;;;;;;1.86;75.02;101051.94;5055103;28;20235;-82
2022/12/10 07:34:32;;;;;;;0.25;0.25;;;;;;;1.85;75.17;101049.31;5062345;28;20024;-82
2022/12/10 07:36:59;;;;;;;0.20;0.20;;;;;;;1.84;75.03;101053.63;5061054;28;20041;-83
2022/12/10 07:39:25;;;;;;;0.13;0.13;;;;;;;1.85;75.13;101055.41;5069463;28;20440;-83
2022/12/10 07:41:52;;;;;;;0.47;0.47;;;;;;;1.82;75.22;101055.38;5057340;28;20483;-83
2022/12/10 07:44:21;;;;;;;0.20;0.20;;;;;;;1.90;75.07;101058.13;5062884;28;20052;-83
2022/12/10 07:46:48;;;;;;;0.30;0.30;;;;;;;1.85;74.94;101063.25;5059323;28;20167;-82
2022/12/10 07:49:15;;;;;;;0.20;0.20;;;;;;;1.80;74.96;101062.28;5065731;28;20033;-80
2022/12/10 07:51:45;;;;;;;0.75;0.75;;;;;;;1.82;74.95;101064.91;5060526;28;20476;-81
2022/12/10 07:54:11;;;;;;;0.40;0.40;;;;;;;1.77;75.08;101075.28;5062936;28;20097;-80
2022/12/10 07:56:38;;;;;;;0.13;0.13;;;;;;;1.81;74.87;101071.88;5047535;28;20143;-82
2022/12/10 07:59:04;;;;;;;0.47;0.47;;;;;;;1.81;75.03;101077.13;5052100;28;20052;-79
2022/12/10 08:01:30;;;;;;;0.20;0.20;;;;;;;1.80;74.99;101070.13;5044775;28;20017;-80
2022/12/10 08:03:57;;;;;;;0.20;0.20;;;;;;;1.89;75.13;101079.88;5044843;28;20029;-80
2022/12/10 08:06:24;;;;;;;0.38;0.38;;;;;;;1.87;74.96;101064.16;5048986;28;20032;-81
2022/12/10 08:08:51;;;;;;;0.20;0.20;;;;;;;1.86;74.96;101069.38;5041319;28;21843;-82
2022/12/10 08:11:19;;;;;;;0.35;0.35;;;;;;;1.80;74.76;101070.13;5043548;28;20037;-81
2022/12/10 08:13:46;;;;;;;0.25;0.25;;;;;;;1.83;74.83;101072.78;5044278;28;20106;-81
2022/12/10 08:16:14;;;;;;;0.20;0.20;;;;;;;1.85;74.76;101073.69;5047988;28;20393;-81
2022/12/10 08:18:42;;;;;;;0.13;0.13;;;;;;;1.89;74.79;101075.50;5047401;28;20491;-82
2022/12/10 08:21:11;;;;;;;1.85;1.75;;;;;;;1.87;74.73;101085.06;5048096;28;20406;-81
2022/12/10 08:23:38;;;;;;;0.20;0.20;;;;;;;1.86;74.56;101088.53;5052604;28;20036;-81
2022/12/10 08:26:07;;;;;;;0.20;0.20;;;;;;;1.87;74.78;101089.41;5051743;28;20044;-81
2022/12/10 08:28:34;;;;;;;0.20;0.20;;;;;;;1.86;74.72;101093.75;5039785;28;20029;-81
2022/12/10 08:31:00;;;;;;;0.20;0.20;;;;;;;1.84;74.68;101095.44;5044901;28;20028;-82
2022/12/10 08:33:26;;;;;;;0.55;0.55;;;;;;;1.87;74.48;101098.13;5061758;28;20048;-81
2022/12/10 08:35:56;;;;;;;0.20;0.20;;;;;;;1.83;74.61;101111.09;5055463;28;20041;-80
2022/12/10 08:38:22;;;;;;;0.20;0.20;;;;;;;1.85;74.89;101107.66;5067091;28;20048;-80
2022/12/10 08:40:48;;;;;;;0.20;0.20;;;;;;;1.81;74.42;101110.19;5059417;28;20045;-80
2022/12/10 08:43:15;;;;;;;0.10;0.10;;;;;;;1.78;74.81;101105.78;5056015;28;20041;-81
2022/12/10 08:45:41;;;;;;;0.20;0.20;;;;;;;1.72;74.61;101111.78;5050023;28;20037;-81
2022/12/10 08:48:07;;;;;;;0.20;0.20;;;;;;;1.73;74.53;101113.53;5043591;28;20426;-80
2022/12/10 08:50:33;;;;;;;0.30;0.30;;;;;;;1.76;74.53;101107.50;5046778;28;20395;-79
2022/12/10 08:53:00;;;;;;;0.20;0.20;;;;;;;1.75;74.42;101114.44;5055318;28;20025;-79
2022/12/10 08:55:26;;;;;;;0.10;0.10;;;;;;;1.82;74.79;101114.56;5051197;28;20037;-78
2022/12/10 08:57:52;;;;;;;0.28;0.28;;;;;;;1.70;74.28;101123.03;5049676;28;20037;-81
2022/12/10 09:00:18;;;;;;;0.20;0.20;;;;;;;1.70;74.46;101116.06;5045763;28;20079;-82
2022/12/10 09:02:45;;;;;;;0.20;0.20;;;;;;;1.69;74.58;101126.50;5054530;28;20502;-81
2022/12/10 09:05:12;;;;;;;0.57;0.57;;;;;;;1.68;74.49;101129.94;5048862;28;20505;-82
2022/12/10 09:07:38;;;;;;;0.20;0.20;;;;;;;1.74;74.37;101123.13;5046080;28;20037;-82
2022/12/10 09:10:04;;;;;;;0.20;0.20;;;;;;;1.75;74.83;101137.94;5047426;28;20071;-83
2022/12/10 09:12:32;;;;;;;0.20;0.20;;;;;;;1.70;74.53;101133.50;5052019;28;20502;-83
2022/12/10 09:14:58;;;;;;;0.20;0.20;;;;;;;1.71;74.61;101124.81;5056128;28;20154;-82
2022/12/10 09:17:24;;;;;;;1.85;1.58;;;;;;;1.76;74.52;101125.78;5055972;28;20075;-83
2022/12/10 09:19:50;;;;;;;0.30;0.30;;;;;;;1.74;74.70;101130.06;5058359;28;20048;-83
2022/12/10 09:22:17;;;;;;;0.77;0.77;;;;;;;1.76;74.55;101123.16;5069859;28;20438;-83
2022/12/10 09:24:43;;;;;;;0.22;0.22;;;;;;;1.77;74.63;101127.53;5051832;28;20040;-83
2022/12/10 09:27:09;;;;;;;0.43;0.30;;;;;;;1.78;74.70;101129.28;5052331;28;20025;-82
2022/12/10 09:29:35;;;;;;;0.10;0.10;;;;;;;1.79;74.66;101131.06;5048421;28;20079;-82
2022/12/10 09:32:04;;;;;;;0.20;0.20;;;;;;;1.82;74.72;101136.34;5053076;28;20057;-82
2022/12/10 09:34:30;;;;;;;0.10;0.10;;;;;;;1.81;74.41;101144.13;5055999;28;20029;-82
2022/12/10 09:36:57;;;;;;;0.10;0.10;;;;;;;1.84;74.51;101142.47;5057954;28;20029;-83
2022/12/10 09:39:23;;;;;;;0.20;0.20;;;;;;;1.89;74.72;101156.50;5058332;28;20029;-83
2022/12/10 09:42:03;;;;;;;0.20;0.20;;;;;;;1.99;74.67;101156.72;5062968;28;20049;-82
2022/12/10 09:45:08;;;;;;;2.10;1.45;;;;;;;2.00;74.41;101153.25;5076031;28;20029;-82
2022/12/10 09:47:49;;;;;;;0.20;0.20;;;;;;;1.99;74.38;101151.50;5049815;28;20029;-83
2022/12/10 09:50:23;;;;;;;1.33;1.33;;;;;;;2.07;74.46;101157.75;5043907;28;20037;-82
2022/12/10 09:52:50;;;;;;;0.20;0.20;;;;;;;2.01;74.25;101149.81;5050853;28;20045;-82
2022/12/10 09:55:22;;;;;;;0.25;0.25;;;;;;;2.02;74.42;101155.06;5053524;28;20084;-83
2022/12/10 09:57:51;;;;;;;0.20;0.20;;;;;;;2.08;74.12;101149.03;5065940;28;20024;-83
2022/12/10 10:00:21;;;;;;;1.70;1.40;;;;;;;2.13;74.23;101150.03;5054540;28;20275;-82
2022/12/10 10:02:50;;;;;;;0.20;0.20;;;;;;;2.20;74.32;101151.91;5053193;28;20108;-83
2022/12/10 10:05:23;;;;;;;0.30;0.30;;;;;;;2.26;74.44;101154.63;5055055;28;20037;-83
2022/12/10 10:07:54;;;;;;;0.98;0.95;;;;;;;2.31;74.21;101153.88;5051025;28;20064;-83
2022/12/10 10:10:29;;;;;;;0.43;0.43;;;;;;;2.33;74.11;101163.50;5051214;28;20487;-82
2022/12/10 10:13:11;;;;;;;0.20;0.20;;;;;;;2.36;74.05;101160.94;5051311;28;20116;-82
2022/12/10 10:15:41;;;;;;;0.20;0.20;;;;;;;2.40;74.05;101154.03;5047195;28;20044;-82
2022/12/10 10:18:32;;;;;;;1.00;1.00;;;;;;;2.43;74.01;101154.97;5048342;28;20075;-82
2022/12/10 10:21:00;;;;;;;2.90;2.20;;;;;;;2.40;73.68;101159.25;5042771;28;20032;-81
2022/12/10 10:23:26;;;;;;;0.30;0.30;;;;;;;2.44;73.67;101153.22;5049167;28;20112;-81
2022/12/10 10:25:52;;;;;;;0.38;0.38;;;;;;;2.41;73.84;101150.56;5062553;28;20029;-81
2022/12/10 10:28:21;;;;;;;0.88;0.82;;;;;;;2.38;73.99;101150.50;5056177;28;20036;-81
2022/12/10 10:30:47;;;;;;;2.60;2.50;;;;;;;2.30;73.43;101158.19;5048391;28;20079;-81
2022/12/10 10:33:17;;;;;;;0.38;0.38;;;;;;;2.32;73.61;101161.72;5052272;28;20028;-82
2022/12/10 10:38:26;;;;;;;0.20;0.20;;;;;;;2.37;73.40;101165.31;5108682;27;20399;-82
2022/12/10 10:40:56;;;;;;;0.93;0.93;;;;;;;2.44;73.54;101163.69;5093542;28;20024;-83
2022/12/10 10:43:27;;;;;;;1.38;1.33;;;;;;;2.47;73.67;101165.47;5099949;28;20032;-83
2022/12/10 10:46:12;;;;;;;0.93;0.93;;;;;;;2.49;73.60;101169.88;5112143;28;20081;-83
2022/12/10 10:48:40;;;;;;;0.75;0.75;;;;;;;2.51;73.05;101162.06;5106134;28;20024;-82
2022/12/10 10:53:51;;;;;;;0.17;0.17;;;;;;;2.54;73.17;101157.78;5100148;27;20410;-82
2022/12/10 10:56:40;;;;;;;0.20;0.20;;;;;;;2.62;73.07;101160.53;5066487;28;20037;-82
2022/12/10 10:59:24;;;;;;;0.20;0.20;;;;;;;2.55;72.99;101169.13;5084330;28;20047;-82
2022/12/10 11:01:58;;;;;;;0.85;0.85;;;;;;;2.53;72.66;101161.25;5050737;28;20032;-83
2022/12/10 11:04:30;;;;;;;0.80;0.80;;;;;;;2.56;72.85;101163.91;5048992;28;20025;-82
2022/12/10 11:07:00;;;;;;;0.20;0.20;;;;;;;2.59;73.12;101165.69;5046317;28;20060;-82
2022/12/10 11:09:29;;;;;;;0.20;0.20;;;;;;;2.61;72.94;101163.13;5049893;28;20260;-83
2022/12/10 11:12:02;;;;;;;0.10;0.10;;;;;;;2.64;72.80;101163.16;5055596;28;20031;-82
2022/12/10 11:17:49;;;;;;;0.30;0.30;;;;;;;2.55;72.96;101156.91;5144822;27;20913;-82
2022/12/10 11:22:57;;;;;;;0.30;0.30;;;;;;;2.62;72.93;101155.28;5133837;27;1261095;-82
2022/12/10 11:25:56;;;;;;;0.82;0.82;;;;;;;2.70;73.07;101152.81;5129603;28;20038;-82
2022/12/10 11:31:28;;;;;;;0.10;0.10;;;;;;;2.73;73.17;101148.50;5113570;27;20626;-82
2022/12/10 11:37:02;;;;;;;0.30;0.30;;;;;;;2.67;73.08;101153.63;5112631;27;1205148;-83
2022/12/10 11:39:54;;;;;;;0.60;0.60;;;;;;;2.61;73.11;101163.13;5122293;28;20468;-83
2022/12/10 11:42:47;;;;;;;2.00;1.65;;;;;;;2.66;72.85;101157.09;5127124;28;20402;-83
2022/12/10 11:48:27;;;;;;;2.53;2.33;;;;;;;2.71;73.13;101152.81;5107106;27;1185892;-83
2022/12/10 11:51:00;;;;;;;0.40;0.40;;;;;;;2.61;72.83;101157.91;5124031;28;20063;-83
2022/12/10 11:56:24;;;;;;;0.38;0.38;;;;;;;2.73;72.85;101147.66;5116279;27;20379;-83
2022/12/10 12:02:19;;;;;;;0.50;0.50;;;;;;;2.76;73.21;101152.91;5077063;28;20387;-83
2022/12/10 12:05:14;;;;;;;2.15;1.80;;;;;;;2.75;73.11;101156.38;5066147;28;20040;-83
2022/12/10 12:10:44;;;;;;;0.38;0.38;;;;;;;2.88;72.82;101147.03;5107999;27;20389;-83
2022/12/10 12:16:02;;;;;;;0.20;0.20;;;;;;;2.86;73.03;101149.59;5114300;27;20601;-83
2022/12/10 12:21:15;;;;;;;0.70;0.70;;;;;;;2.86;73.12;101149.59;5089656;27;20412;-82
2022/12/10 12:23:50;;;;;;;0.40;0.40;;;;;;;2.92;73.10;101149.69;5087731;28;20031;-82
2022/12/10 12:26:38;;;;;;;0.20;0.20;;;;;;;2.97;72.86;101149.78;5078677;28;20013;-82
2022/12/10 12:31:47;;;;;;;0.90;0.90;;;;;;;2.85;72.68;101153.06;5102338;27;1279276;-82
2022/12/10 12:37:12;;;;;;;1.45;1.45;;;;;;;2.81;72.79;101139.91;5125455;27;20386;-80
2022/12/10 12:40:04;;;;;;;0.57;0.57;;;;;;;2.83;72.75;101141.69;5113381;28;20043;-83
2022/12/10 12:42:56;;;;;;;0.20;0.20;;;;;;;2.80;72.92;101139.00;5104038;28;20028;-83
2022/12/10 12:45:47;;;;;;;2.65;2.45;;;;;;;2.79;73.12;101142.50;5101050;28;20287;-84
2022/12/10 12:50:58;;;;;;;0.75;0.75;;;;;;;2.77;72.89;101133.75;5065749;28;20405;-83
2022/12/10 12:53:25;;;;;;;0.20;0.20;;;;;;;2.79;73.14;101139.00;5039128;28;20032;-83